sensor_id;sensor_type;location;lat;lon;timestamp;P1;durP1;ratioP1;P2;durP2;ratioP2
20069;SDS011;10195;50.868;4.382;2023-01-19T00:01:26;20.57;;;13.30;;
20069;SDS011;10195;50.868;4.382;2023-01-19T00:03:52;17.43;;;12.07;;
20069;SDS011;10195;50.868;4.382;2023-01-19T00:06:17;19.67;;;12.20;;
20069;SDS011;10195;50.868;4.382;2023-01-19T00:08:43;26.90;;;14.20;;
20069;SDS011;10195;50.868;4.382;2023-01-19T00:11:10;28.13;;;14.60;;
20069;SDS011;10195;50.868;4.382;2023-01-19T00:13:37;21.77;;;12.63;;
20069;SDS011;10195;50.868;4.382;2023-01-19T00:16:04;29.53;;;14.10;;
20069;SDS011;10195;50.868;4.382;2023-01-19T00:18:30;21.80;;;14.00;;
20069;SDS011;10195;50.868;4.382;2023-01-19T00:20:56;29.00;;;13.47;;
20069;SDS011;10195;50.868;4.382;2023-01-19T00:23:22;24.53;;;13.90;;
20069;SDS011;10195;50.868;4.382;2023-01-19T00:25:47;19.27;;;12.20;;
20069;SDS011;10195;50.868;4.382;2023-01-19T00:28:16;20.33;;;13.93;;
20069;SDS011;10195;50.868;4.382;2023-01-19T00:30:42;22.17;;;12.33;;
20069;SDS011;10195;50.868;4.382;2023-01-19T00:33:09;20.17;;;12.93;;
20069;SDS011;10195;50.868;4.382;2023-01-19T00:35:37;20.57;;;12.97;;
20069;SDS011;10195;50.868;4.382;2023-01-19T00:38:03;23.07;;;13.23;;
20069;SDS011;10195;50.868;4.382;2023-01-19T00:40:29;23.87;;;12.60;;
20069;SDS011;10195;50.868;4.382;2023-01-19T00:42:54;23.47;;;13.13;;
20069;SDS011;10195;50.868;4.382;2023-01-19T00:45:21;18.30;;;11.50;;
20069;SDS011;10195;50.868;4.382;2023-01-19T00:47:48;21.87;;;12.30;;
20069;SDS011;10195;50.868;4.382;2023-01-19T00:50:21;23.10;;;12.27;;
20069;SDS011;10195;50.868;4.382;2023-01-19T00:52:51;25.53;;;13.00;;
20069;SDS011;10195;50.868;4.382;2023-01-19T00:55:18;30.13;;;14.23;;
20069;SDS011;10195;50.868;4.382;2023-01-19T00:57:44;16.33;;;7.37;;
20069;SDS011;10195;50.868;4.382;2023-01-19T01:00:14;24.23;;;11.90;;
20069;SDS011;10195;50.868;4.382;2023-01-19T01:02:46;22.97;;;9.97;;
20069;SDS011;10195;50.868;4.382;2023-01-19T01:05:13;29.93;;;12.43;;
20069;SDS011;10195;50.868;4.382;2023-01-19T01:07:40;21.80;;;12.70;;
20069;SDS011;10195;50.868;4.382;2023-01-19T01:10:10;22.17;;;13.20;;
20069;SDS011;10195;50.868;4.382;2023-01-19T01:12:39;22.23;;;13.17;;
20069;SDS011;10195;50.868;4.382;2023-01-19T01:15:09;26.10;;;13.13;;
20069;SDS011;10195;50.868;4.382;2023-01-19T01:17:40;21.63;;;10.53;;
20069;SDS011;10195;50.868;4.382;2023-01-19T01:22:41;24.47;;;12.27;;
20069;SDS011;10195;50.868;4.382;2023-01-19T01:25:13;21.07;;;12.90;;
20069;SDS011;10195;50.868;4.382;2023-01-19T01:27:40;18.43;;;11.57;;
20069;SDS011;10195;50.868;4.382;2023-01-19T01:30:07;24.47;;;12.53;;
20069;SDS011;10195;50.868;4.382;2023-01-19T01:32:35;22.93;;;11.80;;
20069;SDS011;10195;50.868;4.382;2023-01-19T01:35:03;24.53;;;13.20;;
20069;SDS011;10195;50.868;4.382;2023-01-19T01:37:29;25.33;;;13.27;;
20069;SDS011;10195;50.868;4.382;2023-01-19T01:39:56;28.43;;;13.70;;
20069;SDS011;10195;50.868;4.382;2023-01-19T01:42:28;24.87;;;13.70;;
20069;SDS011;10195;50.868;4.382;2023-01-19T01:44:59;21.53;;;11.83;;
20069;SDS011;10195;50.868;4.382;2023-01-19T01:47:51;23.87;;;11.93;;
20069;SDS011;10195;50.868;4.382;2023-01-19T01:50:20;22.80;;;13.67;;
20069;SDS011;10195;50.868;4.382;2023-01-19T01:53:08;20.77;;;12.43;;
20069;SDS011;10195;50.868;4.382;2023-01-19T01:55:42;23.43;;;12.80;;
20069;SDS011;10195;50.868;4.382;2023-01-19T01:58:10;21.07;;;13.23;;
20069;SDS011;10195;50.868;4.382;2023-01-19T02:00:40;23.67;;;13.17;;
20069;SDS011;10195;50.868;4.382;2023-01-19T02:03:25;23.47;;;12.80;;
20069;SDS011;10195;50.868;4.382;2023-01-19T02:05:52;18.03;;;9.77;;
20069;SDS011;10195;50.868;4.382;2023-01-19T02:11:18;31.13;;;13.30;;
20069;SDS011;10195;50.868;4.382;2023-01-19T02:14:03;23.73;;;12.67;;
20069;SDS011;10195;50.868;4.382;2023-01-19T02:16:29;21.87;;;11.33;;
20069;SDS011;10195;50.868;4.382;2023-01-19T02:18:56;19.50;;;11.27;;
20069;SDS011;10195;50.868;4.382;2023-01-19T02:23:59;21.57;;;13.00;;
20069;SDS011;10195;50.868;4.382;2023-01-19T02:31:26;20.70;;;11.73;;
20069;SDS011;10195;50.868;4.382;2023-01-19T02:33:53;22.93;;;11.83;;
20069;SDS011;10195;50.868;4.382;2023-01-19T02:36:23;23.93;;;12.67;;
20069;SDS011;10195;50.868;4.382;2023-01-19T02:38:53;26.87;;;12.47;;
20069;SDS011;10195;50.868;4.382;2023-01-19T02:41:26;22.33;;;12.67;;
20069;SDS011;10195;50.868;4.382;2023-01-19T02:43:55;21.13;;;12.13;;
20069;SDS011;10195;50.868;4.382;2023-01-19T02:46:22;21.73;;;12.70;;
20069;SDS011;10195;50.868;4.382;2023-01-19T02:48:48;23.70;;;13.40;;
20069;SDS011;10195;50.868;4.382;2023-01-19T02:51:20;20.63;;;11.83;;
20069;SDS011;10195;50.868;4.382;2023-01-19T02:56:43;29.00;;;13.57;;
20069;SDS011;10195;50.868;4.382;2023-01-19T02:59:31;26.03;;;12.00;;
20069;SDS011;10195;50.868;4.382;2023-01-19T03:11:03;29.80;;;11.17;;
20069;SDS011;10195;50.868;4.382;2023-01-19T03:16:28;17.10;;;10.20;;
20069;SDS011;10195;50.868;4.382;2023-01-19T03:19:22;23.77;;;12.33;;
20069;SDS011;10195;50.868;4.382;2023-01-19T03:21:57;14.00;;;8.23;;
20069;SDS011;10195;50.868;4.382;2023-01-19T03:24:31;17.47;;;11.00;;
20069;SDS011;10195;50.868;4.382;2023-01-19T03:27:01;23.17;;;11.37;;
20069;SDS011;10195;50.868;4.382;2023-01-19T03:29:33;26.47;;;11.90;;
20069;SDS011;10195;50.868;4.382;2023-01-19T03:32:02;24.63;;;11.47;;
20069;SDS011;10195;50.868;4.382;2023-01-19T03:34:35;26.83;;;12.20;;
20069;SDS011;10195;50.868;4.382;2023-01-19T03:37:02;20.83;;;11.40;;
20069;SDS011;10195;50.868;4.382;2023-01-19T03:39:29;24.33;;;11.33;;
20069;SDS011;10195;50.868;4.382;2023-01-19T03:42:00;20.13;;;10.90;;
20069;SDS011;10195;50.868;4.382;2023-01-19T03:44:31;21.60;;;11.70;;
20069;SDS011;10195;50.868;4.382;2023-01-19T03:47:00;21.43;;;11.20;;
20069;SDS011;10195;50.868;4.382;2023-01-19T03:49:29;23.37;;;11.17;;
20069;SDS011;10195;50.868;4.382;2023-01-19T03:52:05;21.17;;;11.03;;
20069;SDS011;10195;50.868;4.382;2023-01-19T03:54:31;20.70;;;11.40;;
20069;SDS011;10195;50.868;4.382;2023-01-19T03:56:59;20.80;;;11.80;;
20069;SDS011;10195;50.868;4.382;2023-01-19T03:59:28;23.20;;;11.17;;
20069;SDS011;10195;50.868;4.382;2023-01-19T04:01:53;22.67;;;12.77;;
20069;SDS011;10195;50.868;4.382;2023-01-19T04:04:22;26.70;;;12.07;;
20069;SDS011;10195;50.868;4.382;2023-01-19T04:06:49;23.53;;;11.83;;
20069;SDS011;10195;50.868;4.382;2023-01-19T04:09:15;20.73;;;11.83;;
20069;SDS011;10195;50.868;4.382;2023-01-19T04:11:40;16.90;;;9.07;;
20069;SDS011;10195;50.868;4.382;2023-01-19T04:14:06;20.90;;;12.27;;
20069;SDS011;10195;50.868;4.382;2023-01-19T04:16:32;26.07;;;13.87;;
20069;SDS011;10195;50.868;4.382;2023-01-19T04:18:58;21.17;;;11.87;;
20069;SDS011;10195;50.868;4.382;2023-01-19T04:21:26;24.17;;;12.80;;
20069;SDS011;10195;50.868;4.382;2023-01-19T04:23:51;26.53;;;13.87;;
20069;SDS011;10195;50.868;4.382;2023-01-19T04:26:17;23.23;;;13.10;;
20069;SDS011;10195;50.868;4.382;2023-01-19T04:28:43;24.93;;;13.53;;
20069;SDS011;10195;50.868;4.382;2023-01-19T04:31:12;23.37;;;12.50;;
20069;SDS011;10195;50.868;4.382;2023-01-19T04:33:38;22.07;;;10.40;;
20069;SDS011;10195;50.868;4.382;2023-01-19T04:36:03;27.93;;;14.47;;
20069;SDS011;10195;50.868;4.382;2023-01-19T04:38:29;21.13;;;13.67;;
20069;SDS011;10195;50.868;4.382;2023-01-19T04:40:55;23.67;;;13.17;;
20069;SDS011;10195;50.868;4.382;2023-01-19T04:43:21;25.87;;;13.90;;
20069;SDS011;10195;50.868;4.382;2023-01-19T04:45:50;25.83;;;13.07;;
20069;SDS011;10195;50.868;4.382;2023-01-19T04:48:16;27.70;;;13.93;;
20069;SDS011;10195;50.868;4.382;2023-01-19T04:50:45;25.20;;;14.03;;
20069;SDS011;10195;50.868;4.382;2023-01-19T04:53:11;28.47;;;15.43;;
20069;SDS011;10195;50.868;4.382;2023-01-19T04:55:37;27.63;;;15.00;;
20069;SDS011;10195;50.868;4.382;2023-01-19T04:58:04;32.27;;;15.77;;
20069;SDS011;10195;50.868;4.382;2023-01-19T05:00:29;31.90;;;15.87;;
20069;SDS011;10195;50.868;4.382;2023-01-19T05:02:55;27.37;;;15.77;;
20069;SDS011;10195;50.868;4.382;2023-01-19T05:05:21;34.83;;;16.23;;
20069;SDS011;10195;50.868;4.382;2023-01-19T05:07:46;24.30;;;14.50;;
20069;SDS011;10195;50.868;4.382;2023-01-19T05:10:12;31.30;;;17.23;;
20069;SDS011;10195;50.868;4.382;2023-01-19T05:12:38;34.37;;;16.40;;
20069;SDS011;10195;50.868;4.382;2023-01-19T05:15:06;26.47;;;14.80;;
20069;SDS011;10195;50.868;4.382;2023-01-19T05:17:33;34.13;;;17.00;;
20069;SDS011;10195;50.868;4.382;2023-01-19T05:19:59;31.40;;;15.63;;
20069;SDS011;10195;50.868;4.382;2023-01-19T05:22:25;35.20;;;17.83;;
20069;SDS011;10195;50.868;4.382;2023-01-19T05:24:50;32.07;;;16.07;;
20069;SDS011;10195;50.868;4.382;2023-01-19T05:27:16;31.97;;;16.77;;
20069;SDS011;10195;50.868;4.382;2023-01-19T05:29:41;33.17;;;17.43;;
20069;SDS011;10195;50.868;4.382;2023-01-19T05:32:07;34.20;;;16.27;;
20069;SDS011;10195;50.868;4.382;2023-01-19T05:34:41;26.77;;;13.83;;
20069;SDS011;10195;50.868;4.382;2023-01-19T05:37:07;33.43;;;17.33;;
20069;SDS011;10195;50.868;4.382;2023-01-19T05:39:33;36.43;;;18.17;;
20069;SDS011;10195;50.868;4.382;2023-01-19T05:41:58;30.53;;;16.77;;
20069;SDS011;10195;50.868;4.382;2023-01-19T05:44:27;32.90;;;17.87;;
20069;SDS011;10195;50.868;4.382;2023-01-19T05:46:53;39.50;;;18.07;;
20069;SDS011;10195;50.868;4.382;2023-01-19T05:49:21;35.30;;;16.87;;
20069;SDS011;10195;50.868;4.382;2023-01-19T05:51:47;37.47;;;17.90;;
20069;SDS011;10195;50.868;4.382;2023-01-19T05:54:13;33.33;;;17.13;;
20069;SDS011;10195;50.868;4.382;2023-01-19T05:56:39;36.17;;;16.83;;
20069;SDS011;10195;50.868;4.382;2023-01-19T05:59:06;37.87;;;17.10;;
20069;SDS011;10195;50.868;4.382;2023-01-19T06:01:31;24.17;;;13.53;;
20069;SDS011;10195;50.868;4.382;2023-01-19T06:04:01;34.73;;;18.23;;
20069;SDS011;10195;50.868;4.382;2023-01-19T06:06:27;34.13;;;17.10;;
20069;SDS011;10195;50.868;4.382;2023-01-19T06:08:53;33.50;;;17.63;;
20069;SDS011;10195;50.868;4.382;2023-01-19T06:11:18;30.17;;;16.43;;
20069;SDS011;10195;50.868;4.382;2023-01-19T06:13:44;35.97;;;16.97;;
20069;SDS011;10195;50.868;4.382;2023-01-19T06:16:11;35.23;;;17.07;;
20069;SDS011;10195;50.868;4.382;2023-01-19T06:18:37;33.67;;;16.30;;
20069;SDS011;10195;50.868;4.382;2023-01-19T06:21:07;21.33;;;11.07;;
20069;SDS011;10195;50.868;4.382;2023-01-19T06:23:34;34.43;;;17.43;;
20069;SDS011;10195;50.868;4.382;2023-01-19T06:26:00;36.03;;;17.27;;
20069;SDS011;10195;50.868;4.382;2023-01-19T06:28:27;42.43;;;16.90;;
20069;SDS011;10195;50.868;4.382;2023-01-19T06:30:53;28.17;;;14.67;;
20069;SDS011;10195;50.868;4.382;2023-01-19T06:33:20;44.30;;;17.33;;
20069;SDS011;10195;50.868;4.382;2023-01-19T06:35:49;25.50;;;12.00;;
20069;SDS011;10195;50.868;4.382;2023-01-19T06:38:16;31.97;;;17.07;;
20069;SDS011;10195;50.868;4.382;2023-01-19T06:40:43;33.30;;;17.33;;
20069;SDS011;10195;50.868;4.382;2023-01-19T06:43:10;40.60;;;18.47;;
20069;SDS011;10195;50.868;4.382;2023-01-19T06:45:36;34.13;;;17.93;;
20069;SDS011;10195;50.868;4.382;2023-01-19T06:48:03;35.37;;;18.27;;
20069;SDS011;10195;50.868;4.382;2023-01-19T06:50:29;32.27;;;17.13;;
20069;SDS011;10195;50.868;4.382;2023-01-19T06:52:55;43.53;;;19.47;;
20069;SDS011;10195;50.868;4.382;2023-01-19T06:55:21;34.53;;;17.83;;
20069;SDS011;10195;50.868;4.382;2023-01-19T06:57:46;33.13;;;14.07;;
20069;SDS011;10195;50.868;4.382;2023-01-19T07:00:12;32.00;;;17.17;;
20069;SDS011;10195;50.868;4.382;2023-01-19T07:02:41;30.87;;;17.43;;
20069;SDS011;10195;50.868;4.382;2023-01-19T07:05:08;19.27;;;9.40;;
20069;SDS011;10195;50.868;4.382;2023-01-19T07:07:35;27.23;;;14.77;;
20069;SDS011;10195;50.868;4.382;2023-01-19T07:10:04;33.23;;;17.13;;
20069;SDS011;10195;50.868;4.382;2023-01-19T07:12:32;35.37;;;17.60;;
20069;SDS011;10195;50.868;4.382;2023-01-19T07:15:04;36.63;;;16.67;;
20069;SDS011;10195;50.868;4.382;2023-01-19T07:17:31;32.43;;;16.13;;
20069;SDS011;10195;50.868;4.382;2023-01-19T07:19:56;32.53;;;16.27;;
20069;SDS011;10195;50.868;4.382;2023-01-19T07:22:22;34.90;;;16.03;;
20069;SDS011;10195;50.868;4.382;2023-01-19T07:24:50;30.83;;;15.70;;
20069;SDS011;10195;50.868;4.382;2023-01-19T07:27:19;33.53;;;15.80;;
20069;SDS011;10195;50.868;4.382;2023-01-19T07:29:44;32.13;;;16.87;;
20069;SDS011;10195;50.868;4.382;2023-01-19T07:32:10;36.23;;;17.30;;
20069;SDS011;10195;50.868;4.382;2023-01-19T07:34:36;36.27;;;17.23;;
20069;SDS011;10195;50.868;4.382;2023-01-19T07:37:02;35.50;;;17.33;;
20069;SDS011;10195;50.868;4.382;2023-01-19T07:39:28;34.17;;;17.53;;
20069;SDS011;10195;50.868;4.382;2023-01-19T07:41:55;42.20;;;17.07;;
20069;SDS011;10195;50.868;4.382;2023-01-19T07:44:21;36.30;;;17.80;;
20069;SDS011;10195;50.868;4.382;2023-01-19T07:46:48;33.63;;;17.43;;
20069;SDS011;10195;50.868;4.382;2023-01-19T07:49:15;34.83;;;17.37;;
20069;SDS011;10195;50.868;4.382;2023-01-19T07:51:43;33.03;;;16.97;;
20069;SDS011;10195;50.868;4.382;2023-01-19T07:54:09;35.87;;;17.83;;
20069;SDS011;10195;50.868;4.382;2023-01-19T07:56:36;37.77;;;16.70;;
20069;SDS011;10195;50.868;4.382;2023-01-19T07:59:08;38.47;;;17.23;;
20069;SDS011;10195;50.868;4.382;2023-01-19T08:01:34;35.63;;;17.00;;
20069;SDS011;10195;50.868;4.382;2023-01-19T08:04:02;37.33;;;17.07;;
20069;SDS011;10195;50.868;4.382;2023-01-19T08:06:32;36.87;;;17.57;;
20069;SDS011;10195;50.868;4.382;2023-01-19T08:09:01;36.20;;;16.87;;
20069;SDS011;10195;50.868;4.382;2023-01-19T08:11:32;38.13;;;18.87;;
20069;SDS011;10195;50.868;4.382;2023-01-19T08:14:01;42.23;;;19.30;;
20069;SDS011;10195;50.868;4.382;2023-01-19T08:16:27;37.80;;;16.63;;
20069;SDS011;10195;50.868;4.382;2023-01-19T08:18:55;35.17;;;17.60;;
20069;SDS011;10195;50.868;4.382;2023-01-19T08:21:23;33.33;;;17.87;;
20069;SDS011;10195;50.868;4.382;2023-01-19T08:23:56;22.40;;;9.90;;
20069;SDS011;10195;50.868;4.382;2023-01-19T08:26:27;37.03;;;17.57;;
20069;SDS011;10195;50.868;4.382;2023-01-19T08:28:58;36.17;;;16.93;;
20069;SDS011;10195;50.868;4.382;2023-01-19T08:31:26;24.10;;;13.67;;
20069;SDS011;10195;50.868;4.382;2023-01-19T08:33:55;44.80;;;17.27;;
20069;SDS011;10195;50.868;4.382;2023-01-19T08:36:21;37.07;;;16.87;;
20069;SDS011;10195;50.868;4.382;2023-01-19T08:38:47;43.90;;;18.07;;
20069;SDS011;10195;50.868;4.382;2023-01-19T08:41:13;48.03;;;17.57;;
20069;SDS011;10195;50.868;4.382;2023-01-19T08:43:42;37.40;;;18.33;;
20069;SDS011;10195;50.868;4.382;2023-01-19T08:46:09;35.70;;;17.70;;
20069;SDS011;10195;50.868;4.382;2023-01-19T08:48:35;32.00;;;16.63;;
20069;SDS011;10195;50.868;4.382;2023-01-19T08:51:03;37.90;;;17.23;;
20069;SDS011;10195;50.868;4.382;2023-01-19T08:53:29;31.77;;;16.93;;
20069;SDS011;10195;50.868;4.382;2023-01-19T08:55:58;32.23;;;16.30;;
20069;SDS011;10195;50.868;4.382;2023-01-19T08:58:35;33.97;;;17.10;;
20069;SDS011;10195;50.868;4.382;2023-01-19T09:01:08;38.33;;;18.10;;
20069;SDS011;10195;50.868;4.382;2023-01-19T09:03:37;30.33;;;13.60;;
20069;SDS011;10195;50.868;4.382;2023-01-19T09:06:06;38.13;;;17.63;;
20069;SDS011;10195;50.868;4.382;2023-01-19T09:08:34;28.80;;;13.80;;
20069;SDS011;10195;50.868;4.382;2023-01-19T09:11:03;38.27;;;17.43;;
20069;SDS011;10195;50.868;4.382;2023-01-19T09:13:37;35.87;;;16.47;;
20069;SDS011;10195;50.868;4.382;2023-01-19T09:16:03;39.83;;;17.63;;
20069;SDS011;10195;50.868;4.382;2023-01-19T09:18:31;38.80;;;16.07;;
20069;SDS011;10195;50.868;4.382;2023-01-19T09:20:58;36.27;;;16.20;;
20069;SDS011;10195;50.868;4.382;2023-01-19T09:23:27;46.63;;;15.70;;
20069;SDS011;10195;50.868;4.382;2023-01-19T09:25:58;33.30;;;16.07;;
20069;SDS011;10195;50.868;4.382;2023-01-19T09:28:25;41.37;;;16.07;;
20069;SDS011;10195;50.868;4.382;2023-01-19T09:30:52;35.13;;;15.40;;
20069;SDS011;10195;50.868;4.382;2023-01-19T09:33:20;25.23;;;11.33;;
20069;SDS011;10195;50.868;4.382;2023-01-19T09:35:47;40.97;;;15.27;;
20069;SDS011;10195;50.868;4.382;2023-01-19T09:38:16;39.53;;;16.37;;
20069;SDS011;10195;50.868;4.382;2023-01-19T09:46:11;36.47;;;16.37;;
20069;SDS011;10195;50.868;4.382;2023-01-19T09:48:46;32.17;;;15.57;;
20069;SDS011;10195;50.868;4.382;2023-01-19T09:51:22;39.17;;;15.73;;
20069;SDS011;10195;50.868;4.382;2023-01-19T09:56:43;36.67;;;15.03;;
20069;SDS011;10195;50.868;4.382;2023-01-19T10:07:27;40.77;;;15.37;;
20069;SDS011;10195;50.868;4.382;2023-01-19T10:10:24;46.37;;;15.67;;
20069;SDS011;10195;50.868;4.382;2023-01-19T10:18:43;35.10;;;15.17;;
20069;SDS011;10195;50.868;4.382;2023-01-19T10:21:26;35.77;;;14.57;;
20069;SDS011;10195;50.868;4.382;2023-01-19T10:26:58;39.07;;;14.73;;
20069;SDS011;10195;50.868;4.382;2023-01-19T10:29:25;35.93;;;14.63;;
20069;SDS011;10195;50.868;4.382;2023-01-19T10:32:23;33.50;;;14.80;;
20069;SDS011;10195;50.868;4.382;2023-01-19T10:34:52;31.73;;;14.00;;
20069;SDS011;10195;50.868;4.382;2023-01-19T10:42:40;30.93;;;13.30;;
20069;SDS011;10195;50.868;4.382;2023-01-19T10:45:18;33.27;;;13.80;;
20069;SDS011;10195;50.868;4.382;2023-01-19T10:47:47;36.57;;;14.00;;
20069;SDS011;10195;50.868;4.382;2023-01-19T10:50:27;33.53;;;14.97;;
20069;SDS011;10195;50.868;4.382;2023-01-19T10:52:56;32.53;;;13.93;;
20069;SDS011;10195;50.868;4.382;2023-01-19T10:57:51;31.70;;;15.37;;
20069;SDS011;10195;50.868;4.382;2023-01-19T11:00:37;30.27;;;15.00;;
20069;SDS011;10195;50.868;4.382;2023-01-19T11:03:23;29.60;;;12.90;;
20069;SDS011;10195;50.868;4.382;2023-01-19T11:05:52;32.80;;;14.47;;
20069;SDS011;10195;50.868;4.382;2023-01-19T11:08:22;30.20;;;14.10;;
20069;SDS011;10195;50.868;4.382;2023-01-19T11:10:58;27.73;;;14.37;;
20069;SDS011;10195;50.868;4.382;2023-01-19T11:13:30;33.07;;;13.53;;
20069;SDS011;10195;50.868;4.382;2023-01-19T11:15:57;29.87;;;14.93;;
20069;SDS011;10195;50.868;4.382;2023-01-19T11:18:30;29.07;;;14.40;;
20069;SDS011;10195;50.868;4.382;2023-01-19T11:21:11;31.97;;;15.37;;
20069;SDS011;10195;50.868;4.382;2023-01-19T11:23:40;29.80;;;15.13;;
20069;SDS011;10195;50.868;4.382;2023-01-19T11:26:38;34.90;;;15.23;;
20069;SDS011;10195;50.868;4.382;2023-01-19T11:29:14;34.40;;;14.70;;
20069;SDS011;10195;50.868;4.382;2023-01-19T11:31:48;36.53;;;16.17;;
20069;SDS011;10195;50.868;4.382;2023-01-19T11:34:22;36.80;;;17.40;;
20069;SDS011;10195;50.868;4.382;2023-01-19T11:39:31;33.33;;;15.13;;
20069;SDS011;10195;50.868;4.382;2023-01-19T11:42:19;35.80;;;15.77;;
20069;SDS011;10195;50.868;4.382;2023-01-19T11:44:59;35.30;;;15.07;;
20069;SDS011;10195;50.868;4.382;2023-01-19T11:47:44;33.33;;;15.37;;
20069;SDS011;10195;50.868;4.382;2023-01-19T11:50:23;31.27;;;14.30;;
20069;SDS011;10195;50.868;4.382;2023-01-19T11:53:21;29.57;;;15.23;;
20069;SDS011;10195;50.868;4.382;2023-01-19T11:55:53;36.13;;;15.13;;
20069;SDS011;10195;50.868;4.382;2023-01-19T11:58:22;25.60;;;15.47;;
20069;SDS011;10195;50.868;4.382;2023-01-19T12:03:33;30.27;;;14.40;;
20069;SDS011;10195;50.868;4.382;2023-01-19T12:06:36;29.17;;;13.53;;
20069;SDS011;10195;50.868;4.382;2023-01-19T12:14:46;34.13;;;14.57;;
20069;SDS011;10195;50.868;4.382;2023-01-19T12:17:26;25.23;;;14.00;;
20069;SDS011;10195;50.868;4.382;2023-01-19T12:20:24;28.97;;;13.73;;
20069;SDS011;10195;50.868;4.382;2023-01-19T12:28:51;28.43;;;12.87;;
20069;SDS011;10195;50.868;4.382;2023-01-19T12:31:21;24.53;;;12.70;;
20069;SDS011;10195;50.868;4.382;2023-01-19T12:33:47;25.03;;;11.57;;
20069;SDS011;10195;50.868;4.382;2023-01-19T12:39:08;28.20;;;13.93;;
20069;SDS011;10195;50.868;4.382;2023-01-19T12:41:40;22.27;;;12.07;;
20069;SDS011;10195;50.868;4.382;2023-01-19T12:57:38;25.57;;;13.97;;
20069;SDS011;10195;50.868;4.382;2023-01-19T13:21:13;24.80;;;12.97;;
20069;SDS011;10195;50.868;4.382;2023-01-19T13:26:29;25.03;;;12.90;;
20069;SDS011;10195;50.868;4.382;2023-01-19T13:32:12;28.63;;;13.10;;
20069;SDS011;10195;50.868;4.382;2023-01-19T13:34:42;27.10;;;12.43;;
20069;SDS011;10195;50.868;4.382;2023-01-19T13:37:14;26.53;;;12.10;;
20069;SDS011;10195;50.868;4.382;2023-01-19T13:39:46;26.07;;;11.90;;
20069;SDS011;10195;50.868;4.382;2023-01-19T13:45:25;24.47;;;12.07;;
20069;SDS011;10195;50.868;4.382;2023-01-19T13:47:55;20.27;;;10.83;;
20069;SDS011;10195;50.868;4.382;2023-01-19T13:50:27;23.40;;;12.07;;
20069;SDS011;10195;50.868;4.382;2023-01-19T13:52:54;23.90;;;12.43;;
20069;SDS011;10195;50.868;4.382;2023-01-19T13:55:22;26.67;;;11.67;;
20069;SDS011;10195;50.868;4.382;2023-01-19T13:57:50;25.53;;;11.43;;
20069;SDS011;10195;50.868;4.382;2023-01-19T14:00:17;22.57;;;10.77;;
20069;SDS011;10195;50.868;4.382;2023-01-19T14:02:52;21.47;;;11.67;;
20069;SDS011;10195;50.868;4.382;2023-01-19T14:05:32;26.10;;;11.57;;
20069;SDS011;10195;50.868;4.382;2023-01-19T14:13:05;21.17;;;10.70;;
20069;SDS011;10195;50.868;4.382;2023-01-19T14:15:37;21.83;;;10.50;;
20069;SDS011;10195;50.868;4.382;2023-01-19T14:23:39;21.53;;;9.77;;
20069;SDS011;10195;50.868;4.382;2023-01-19T14:32:04;20.07;;;10.03;;
20069;SDS011;10195;50.868;4.382;2023-01-19T14:34:48;21.43;;;10.40;;
20069;SDS011;10195;50.868;4.382;2023-01-19T14:39:48;23.40;;;10.50;;
20069;SDS011;10195;50.868;4.382;2023-01-19T14:42:49;20.10;;;8.50;;
20069;SDS011;10195;50.868;4.382;2023-01-19T14:45:15;19.40;;;10.80;;
20069;SDS011;10195;50.868;4.382;2023-01-19T14:47:43;19.93;;;10.23;;
20069;SDS011;10195;50.868;4.382;2023-01-19T14:50:21;22.33;;;10.80;;
20069;SDS011;10195;50.868;4.382;2023-01-19T14:52:56;21.13;;;11.47;;
20069;SDS011;10195;50.868;4.382;2023-01-19T14:55:33;20.13;;;11.60;;
20069;SDS011;10195;50.868;4.382;2023-01-19T14:58:11;19.87;;;10.63;;
20069;SDS011;10195;50.868;4.382;2023-01-19T15:00:39;21.20;;;11.17;;
20069;SDS011;10195;50.868;4.382;2023-01-19T15:03:06;24.07;;;11.17;;
20069;SDS011;10195;50.868;4.382;2023-01-19T15:05:34;16.47;;;9.97;;
20069;SDS011;10195;50.868;4.382;2023-01-19T15:08:04;19.00;;;10.70;;
20069;SDS011;10195;50.868;4.382;2023-01-19T15:10:30;23.50;;;10.93;;
20069;SDS011;10195;50.868;4.382;2023-01-19T15:12:56;21.83;;;10.87;;
20069;SDS011;10195;50.868;4.382;2023-01-19T15:15:25;19.07;;;10.70;;
20069;SDS011;10195;50.868;4.382;2023-01-19T15:17:55;16.80;;;9.03;;
20069;SDS011;10195;50.868;4.382;2023-01-19T15:20:22;22.00;;;9.53;;
20069;SDS011;10195;50.868;4.382;2023-01-19T15:22:48;20.87;;;10.77;;
20069;SDS011;10195;50.868;4.382;2023-01-19T15:25:15;19.90;;;10.90;;
20069;SDS011;10195;50.868;4.382;2023-01-19T15:27:43;20.37;;;10.37;;
20069;SDS011;10195;50.868;4.382;2023-01-19T15:30:13;28.17;;;11.30;;
20069;SDS011;10195;50.868;4.382;2023-01-19T15:32:51;23.57;;;10.30;;
20069;SDS011;10195;50.868;4.382;2023-01-19T15:35:21;19.70;;;10.67;;
20069;SDS011;10195;50.868;4.382;2023-01-19T15:37:47;24.20;;;10.53;;
20069;SDS011;10195;50.868;4.382;2023-01-19T15:40:14;23.47;;;11.10;;
20069;SDS011;10195;50.868;4.382;2023-01-19T15:42:41;20.00;;;10.77;;
20069;SDS011;10195;50.868;4.382;2023-01-19T15:47:56;30.67;;;11.73;;
20069;SDS011;10195;50.868;4.382;2023-01-19T15:50:23;26.83;;;11.07;;
20069;SDS011;10195;50.868;4.382;2023-01-19T15:52:49;24.27;;;11.10;;
20069;SDS011;10195;50.868;4.382;2023-01-19T15:55:15;20.03;;;11.00;;
20069;SDS011;10195;50.868;4.382;2023-01-19T15:57:40;26.10;;;11.13;;
20069;SDS011;10195;50.868;4.382;2023-01-19T16:00:06;27.70;;;12.00;;
20069;SDS011;10195;50.868;4.382;2023-01-19T16:02:33;20.87;;;9.97;;
20069;SDS011;10195;50.868;4.382;2023-01-19T16:05:02;24.97;;;11.97;;
20069;SDS011;10195;50.868;4.382;2023-01-19T16:07:28;24.17;;;12.27;;
20069;SDS011;10195;50.868;4.382;2023-01-19T16:09:57;24.70;;;11.83;;
20069;SDS011;10195;50.868;4.382;2023-01-19T16:12:27;21.77;;;11.63;;
20069;SDS011;10195;50.868;4.382;2023-01-19T16:14:53;20.20;;;10.70;;
20069;SDS011;10195;50.868;4.382;2023-01-19T16:17:18;22.63;;;12.13;;
20069;SDS011;10195;50.868;4.382;2023-01-19T16:19:44;25.60;;;11.87;;
20069;SDS011;10195;50.868;4.382;2023-01-19T16:22:13;28.87;;;11.50;;
20069;SDS011;10195;50.868;4.382;2023-01-19T16:24:44;19.27;;;11.27;;
20069;SDS011;10195;50.868;4.382;2023-01-19T16:27:10;20.20;;;11.37;;
20069;SDS011;10195;50.868;4.382;2023-01-19T16:29:36;23.47;;;11.73;;
20069;SDS011;10195;50.868;4.382;2023-01-19T16:32:01;27.73;;;10.67;;
20069;SDS011;10195;50.868;4.382;2023-01-19T16:34:27;25.13;;;11.10;;
20069;SDS011;10195;50.868;4.382;2023-01-19T16:36:56;21.40;;;12.17;;
20069;SDS011;10195;50.868;4.382;2023-01-19T16:39:21;23.03;;;11.83;;
20069;SDS011;10195;50.868;4.382;2023-01-19T16:41:47;24.67;;;12.57;;
20069;SDS011;10195;50.868;4.382;2023-01-19T16:44:13;26.87;;;11.97;;
20069;SDS011;10195;50.868;4.382;2023-01-19T16:46:40;19.93;;;9.83;;
20069;SDS011;10195;50.868;4.382;2023-01-19T16:49:12;20.00;;;9.57;;
20069;SDS011;10195;50.868;4.382;2023-01-19T16:51:42;21.30;;;11.33;;
20069;SDS011;10195;50.868;4.382;2023-01-19T16:54:19;26.17;;;12.53;;
20069;SDS011;10195;50.868;4.382;2023-01-19T16:56:46;19.60;;;10.43;;
20069;SDS011;10195;50.868;4.382;2023-01-19T16:59:13;24.37;;;11.03;;
20069;SDS011;10195;50.868;4.382;2023-01-19T17:01:40;24.60;;;12.07;;